createdAt,value
2022-08-17T00:00:34.388Z,48.32
2022-08-17T00:03:03.568Z,48.95
2022-08-17T00:05:34.350Z,48.38
2022-08-17T00:08:01.861Z,48.28
2022-08-17T00:10:28.943Z,48.86
2022-08-17T00:12:59.530Z,48.81
2022-08-17T00:15:26.832Z,48.71
2022-08-17T00:17:53.959Z,48.84
2022-08-17T00:20:21.589Z,48.90
2022-08-17T00:23:11.405Z,48.60
2022-08-17T00:25:41.249Z,48.55
2022-08-17T00:28:08.379Z,48.38
2022-08-17T00:30:51.214Z,48.71
2022-08-17T00:33:25.093Z,49.00
2022-08-17T00:35:53.160Z,48.92
2022-08-17T00:38:20.311Z,49.76
2022-08-17T00:40:55.827Z,49.39
2022-08-17T00:43:37.429Z,49.15
2022-08-17T00:46:14.701Z,49.74
2022-08-17T00:48:43.040Z,49.55
2022-08-17T00:51:24.719Z,49.46
2022-08-17T00:54:00.074Z,49.72
2022-08-17T00:56:35.910Z,49.90
2022-08-17T00:59:06.659Z,49.75
2022-08-17T01:01:34.186Z,50.05
2022-08-17T01:04:02.727Z,50.09
2022-08-17T01:06:29.950Z,50.39
2022-08-17T01:08:59.649Z,50.74
2022-08-17T01:11:29.675Z,50.51
2022-08-17T01:13:56.750Z,50.56
2022-08-17T01:16:28.502Z,50.67
2022-08-17T01:19:01.339Z,50.70
2022-08-17T01:21:57.682Z,50.54
2022-08-17T01:24:28.189Z,50.94
2022-08-17T01:26:56.664Z,50.74
2022-08-17T01:29:26.030Z,50.98
2022-08-17T01:31:56.649Z,51.29
2022-08-17T01:34:25.149Z,50.99
2022-08-17T01:37:07.539Z,51.48
2022-08-17T01:39:43.712Z,51.44
2022-08-17T01:42:18.471Z,51.49
2022-08-17T01:44:45.509Z,51.01
2022-08-17T01:47:12.829Z,51.42
2022-08-17T01:49:39.810Z,51.04
2022-08-17T01:52:11.572Z,51.59
2022-08-17T01:54:41.718Z,51.13
2022-08-17T01:57:09.179Z,51.11
2022-08-17T01:59:36.680Z,50.93
2022-08-17T02:02:05.465Z,50.97
2022-08-17T02:04:32.669Z,51.49
2022-08-17T02:06:59.831Z,52.01
2022-08-17T02:09:29.760Z,51.87
2022-08-17T02:12:00.229Z,52.19
2022-08-17T02:14:47.259Z,52.27
2022-08-17T02:17:14.375Z,52.26
2022-08-17T02:19:42.048Z,51.87
2022-08-17T02:22:09.389Z,52.29
2022-08-17T02:25:00.213Z,52.08
2022-08-17T02:27:26.138Z,51.83
2022-08-17T02:29:53.128Z,51.87
2022-08-17T02:32:27.158Z,52.27
2022-08-17T02:34:56.975Z,52.46
2022-08-17T02:37:25.249Z,52.69
2022-08-17T02:39:52.309Z,52.28
2022-08-17T02:42:22.689Z,52.75
2022-08-17T02:44:49.729Z,52.29
2022-08-17T02:47:16.699Z,52.86
2022-08-17T02:49:54.338Z,52.40
2022-08-17T02:52:43.101Z,52.62
2022-08-17T02:55:15.463Z,52.45
2022-08-17T02:57:42.888Z,52.81
2022-08-17T03:00:15.398Z,53.17
2022-08-17T03:02:44.299Z,53.05
2022-08-17T03:05:13.039Z,52.99
2022-08-17T03:07:40.050Z,52.82
2022-08-17T03:10:08.429Z,52.90
2022-08-17T03:12:39.729Z,53.07
2022-08-17T03:15:15.757Z,53.00
2022-08-17T03:17:43.589Z,53.02
2022-08-17T03:20:11.910Z,53.33
2022-08-17T03:22:48.033Z,53.25
2022-08-17T03:25:37.430Z,52.73
2022-08-17T03:28:06.409Z,53.54
2022-08-17T03:30:34.361Z,53.22
2022-08-17T03:33:04.049Z,53.42
2022-08-17T03:35:35.129Z,53.13
2022-08-17T03:38:02.790Z,53.39
2022-08-17T03:40:34.367Z,53.17
2022-08-17T03:43:19.109Z,53.13
2022-08-17T03:46:04.621Z,53.18
2022-08-17T03:48:51.554Z,53.04
2022-08-17T03:51:43.053Z,53.32
2022-08-17T03:54:29.211Z,53.65
2022-08-17T03:57:08.170Z,53.72
2022-08-17T03:59:36.539Z,53.54
2022-08-17T04:02:13.409Z,53.81
2022-08-17T04:04:40.772Z,53.68
2022-08-17T04:07:08.573Z,53.51
2022-08-17T04:09:36.709Z,53.74
2022-08-17T04:12:04.736Z,53.75
2022-08-17T04:14:51.533Z,53.55
2022-08-17T04:17:20.183Z,53.84
2022-08-17T04:19:47.460Z,54.16
2022-08-17T04:22:31.965Z,53.52
2022-08-17T04:25:19.651Z,53.57
2022-08-17T04:27:48.530Z,54.14
2022-08-17T04:30:16.149Z,53.91
2022-08-17T04:33:05.146Z,54.17
2022-08-17T04:35:38.003Z,54.27
2022-08-17T04:38:06.544Z,54.12
2022-08-17T04:40:52.122Z,54.23
2022-08-17T04:43:22.218Z,53.87
2022-08-17T04:45:56.701Z,53.30
2022-08-17T04:48:36.593Z,53.26
2022-08-17T04:51:19.150Z,53.06
2022-08-17T04:53:54.819Z,53.33
2022-08-17T04:56:23.677Z,53.60
2022-08-17T04:58:52.657Z,52.91
2022-08-17T05:01:23.912Z,52.45
2022-08-17T05:03:53.278Z,52.58
2022-08-17T05:06:20.789Z,52.70
2022-08-17T05:08:47.799Z,52.53
2022-08-17T05:11:15.169Z,51.91
2022-08-17T05:13:42.181Z,51.83
2022-08-17T05:16:09.419Z,51.87
2022-08-17T05:18:39.007Z,51.58
2022-08-17T05:21:07.011Z,51.76
2022-08-17T05:23:42.639Z,51.62
2022-08-17T05:26:25.533Z,50.84
2022-08-17T05:28:59.691Z,50.49
2022-08-17T05:31:30.140Z,50.43
2022-08-17T05:33:57.765Z,50.83
2022-08-17T05:36:42.633Z,50.99
2022-08-17T05:39:16.232Z,50.71
2022-08-17T05:41:46.490Z,50.43
2022-08-17T05:44:13.530Z,49.65
2022-08-17T05:46:44.001Z,49.48
2022-08-17T05:49:12.900Z,49.56
2022-08-17T05:51:48.943Z,49.73
2022-08-17T05:54:39.601Z,48.87
2022-08-17T05:57:12.640Z,48.87
2022-08-17T05:59:57.969Z,49.01
2022-08-17T06:02:47.844Z,48.53
2022-08-17T06:05:23.858Z,47.79
2022-08-17T06:07:57.880Z,48.14
2022-08-17T06:10:35.281Z,47.82
2022-08-17T06:13:19.011Z,47.64
2022-08-17T06:16:04.545Z,47.90
2022-08-17T06:19:01.283Z,48.02
2022-08-17T06:21:34.363Z,47.88
2022-08-17T06:24:07.780Z,48.05
2022-08-17T06:26:43.224Z,48.12
2022-08-17T06:29:33.722Z,48.08
2022-08-17T06:32:02.676Z,47.75
2022-08-17T06:34:30.141Z,47.39
2022-08-17T06:37:06.461Z,46.44
2022-08-17T06:39:50.694Z,46.22
2022-08-17T06:42:54.959Z,46.41
2022-08-17T06:45:31.804Z,46.01
2022-08-17T06:47:58.792Z,46.67
2022-08-17T06:50:38.620Z,46.62
2022-08-17T06:53:30.663Z,46.55
2022-08-17T06:56:11.422Z,46.11
2022-08-17T06:58:41.840Z,45.25
2022-08-17T07:01:19.791Z,45.48
2022-08-17T07:04:19.422Z,45.30
2022-08-17T07:06:50.150Z,45.20
2022-08-17T07:09:43.180Z,44.66
2022-08-17T07:12:22.367Z,44.49
2022-08-17T07:14:56.522Z,44.11
2022-08-17T07:17:47.869Z,44.63
2022-08-17T07:20:22.821Z,44.38
2022-08-17T07:23:08.871Z,44.50
2022-08-17T07:25:35.980Z,44.30
2022-08-17T07:28:07.150Z,44.33
2022-08-17T07:30:50.456Z,44.18
2022-08-17T07:33:22.839Z,43.73
2022-08-17T07:35:50.560Z,42.97
2022-08-17T07:38:25.309Z,43.54
2022-08-17T07:41:02.973Z,43.25
2022-08-17T07:43:37.601Z,42.83
2022-08-17T07:46:44.621Z,41.75
2022-08-17T07:49:12.722Z,41.23
2022-08-17T07:51:54.700Z,41.03
2022-08-17T07:54:30.421Z,40.62
2022-08-17T07:57:03.692Z,40.13
2022-08-17T07:59:34.879Z,40.21
2022-08-17T08:02:31.090Z,40.71
2022-08-17T08:05:01.885Z,40.92
2022-08-17T08:07:34.914Z,40.05
2022-08-17T08:10:12.361Z,39.74
2022-08-17T08:12:47.019Z,38.08
2022-08-17T08:15:23.650Z,38.36
2022-08-17T08:17:55.620Z,37.64
2022-08-17T08:20:37.829Z,37.82
2022-08-17T08:23:45.102Z,37.40
2022-08-17T08:26:27.450Z,36.87
2022-08-17T08:29:04.601Z,36.68
2022-08-17T08:31:56.625Z,36.19
2022-08-17T08:35:01.716Z,35.09
2022-08-17T08:38:01.290Z,35.93
2022-08-17T08:40:36.663Z,35.75
2022-08-17T08:43:14.351Z,36.05
2022-08-17T08:46:00.000Z,35.12
2022-08-17T08:49:11.972Z,35.25
2022-08-17T08:51:58.506Z,34.99
2022-08-17T08:55:23.862Z,35.02
2022-08-17T08:57:59.116Z,34.43
2022-08-17T09:00:27.580Z,34.42
2022-08-17T09:02:57.368Z,34.48
2022-08-17T09:05:54.343Z,33.81
2022-08-17T09:08:46.251Z,33.68
2022-08-17T09:12:01.838Z,33.69
2022-08-17T09:15:01.420Z,33.29
2022-08-17T09:17:47.960Z,33.19
2022-08-17T09:20:29.822Z,32.54
2022-08-17T09:23:12.750Z,31.54
2022-08-17T09:25:51.622Z,31.96
2022-08-17T09:28:30.402Z,33.48
2022-08-17T09:31:03.200Z,31.43
2022-08-17T09:33:34.140Z,31.47
2022-08-17T09:36:10.349Z,32.01
2022-08-17T09:38:59.221Z,31.68
2022-08-17T09:41:49.004Z,32.00
2022-08-17T09:44:36.150Z,30.71
2022-08-17T09:47:08.478Z,30.99
2022-08-17T09:49:51.641Z,30.44
2022-08-17T09:52:27.841Z,30.26
2022-08-17T09:54:57.221Z,30.58
2022-08-17T09:57:31.353Z,30.47
2022-08-17T10:00:16.143Z,31.04
2022-08-17T10:03:03.300Z,30.17
2022-08-17T10:05:33.109Z,30.13
2022-08-17T10:08:17.120Z,30.20
2022-08-17T10:11:12.082Z,30.47
2022-08-17T10:13:47.178Z,29.21
2022-08-17T10:16:44.210Z,29.62
2022-08-17T10:19:19.870Z,29.44
2022-08-17T10:22:14.590Z,29.16
2022-08-17T10:25:23.660Z,28.86
2022-08-17T10:27:58.716Z,28.12
2022-08-17T10:30:31.760Z,28.38
2022-08-17T10:33:03.132Z,29.13
2022-08-17T10:35:38.889Z,29.23
2022-08-17T10:38:46.270Z,28.26
2022-08-17T10:41:27.351Z,26.61
2022-08-17T10:44:39.420Z,25.88
2022-08-17T10:46:56.480Z,25.64
2022-08-17T10:49:30.312Z,25.09
2022-08-17T10:52:00.297Z,25.09
2022-08-17T10:54:47.809Z,24.81
2022-08-17T10:57:29.740Z,24.80
2022-08-17T11:00:27.045Z,24.30
2022-08-17T11:13:37.929Z,24.23
2022-08-17T11:16:20.321Z,25.03
2022-08-17T11:19:13.271Z,24.22
2022-08-17T11:22:11.934Z,24.27
2022-08-17T11:24:51.503Z,24.60
2022-08-17T11:27:21.351Z,23.65
2022-08-17T11:30:01.531Z,23.69
2022-08-17T11:32:37.250Z,23.79
2022-08-17T11:35:22.610Z,23.06
2022-08-17T11:38:14.013Z,22.13
2022-08-17T11:40:52.439Z,22.22
2022-08-17T11:43:25.783Z,22.41
2022-08-17T11:45:55.469Z,22.02
2022-08-17T11:48:57.095Z,21.63
2022-08-17T11:51:45.268Z,21.48
2022-08-17T11:54:41.957Z,21.56
2022-08-17T11:57:27.334Z,20.80
2022-08-17T12:00:30.359Z,20.70
2022-08-17T12:03:23.848Z,19.87
2022-08-17T12:06:01.309Z,19.71
2022-08-17T12:08:32.788Z,19.65
2022-08-17T12:11:10.983Z,19.06
2022-08-17T12:13:46.868Z,18.65
2022-08-17T12:16:21.609Z,18.78
2022-08-17T12:19:02.553Z,18.55
2022-08-17T12:21:40.910Z,18.34
2022-08-17T12:24:14.906Z,17.98
2022-08-17T12:26:44.329Z,18.24
2022-08-17T12:29:38.612Z,18.13
2022-08-17T12:32:07.256Z,18.37
2022-08-17T12:34:41.052Z,17.69
2022-08-17T12:37:15.517Z,17.13
2022-08-17T12:39:53.068Z,17.00
2022-08-17T12:42:32.463Z,17.17
2022-08-17T12:44:59.571Z,17.35
2022-08-17T12:47:30.223Z,16.38
2022-08-17T12:50:29.192Z,16.95
2022-08-17T12:53:01.153Z,16.93
2022-08-17T12:55:35.318Z,17.83
2022-08-17T12:58:02.870Z,17.18
2022-08-17T13:00:31.616Z,16.47
2022-08-17T13:03:00.326Z,16.72
2022-08-17T13:05:35.811Z,16.67
2022-08-17T13:08:13.670Z,16.81
2022-08-17T13:10:41.354Z,16.28
2022-08-17T13:13:24.390Z,16.72
2022-08-17T13:16:05.392Z,17.00
2022-08-17T13:18:53.699Z,16.55
2022-08-17T13:21:22.589Z,16.99
2022-08-17T13:23:58.127Z,17.44
2022-08-17T13:26:38.929Z,16.54
2022-08-17T13:29:31.228Z,16.76
2022-08-17T13:32:04.766Z,16.67
2022-08-17T13:34:56.175Z,16.48
2022-08-17T13:37:34.933Z,15.63
2022-08-17T13:40:27.049Z,15.63
2022-08-17T13:42:56.026Z,15.55
2022-08-17T13:45:35.048Z,15.98
2022-08-17T13:48:13.701Z,15.90
2022-08-17T13:51:07.174Z,16.01
2022-08-17T13:53:43.855Z,16.29
2022-08-17T13:56:34.950Z,16.50
2022-08-17T13:59:13.360Z,16.28
2022-08-17T14:01:51.072Z,16.46
2022-08-17T14:04:24.470Z,16.03
2022-08-17T14:07:01.308Z,16.00
2022-08-17T14:10:08.939Z,16.26
2022-08-17T14:12:39.359Z,16.39
2022-08-17T14:15:07.750Z,16.03
2022-08-17T14:17:38.624Z,15.61
2022-08-17T14:20:09.878Z,15.57
2022-08-17T14:22:39.500Z,15.83
2022-08-17T14:25:08.676Z,15.26
2022-08-17T14:27:52.336Z,15.43
2022-08-17T14:30:26.939Z,15.68
2022-08-17T14:32:56.709Z,15.70
2022-08-17T14:35:24.602Z,15.52
2022-08-17T14:37:52.604Z,16.01
2022-08-17T14:40:21.116Z,16.11
2022-08-17T14:42:48.470Z,16.67
2022-08-17T14:45:32.197Z,16.73
2022-08-17T14:48:04.329Z,16.48
2022-08-17T14:50:35.735Z,16.97
2022-08-17T14:53:04.729Z,16.93
2022-08-17T14:55:32.830Z,17.02
2022-08-17T14:57:59.981Z,17.33
2022-08-17T15:00:27.137Z,17.02
2022-08-17T15:02:58.555Z,17.42
2022-08-17T15:05:31.636Z,17.33
2022-08-17T15:08:00.095Z,16.88
2022-08-17T15:10:28.290Z,17.02
2022-08-17T15:12:55.660Z,17.29
2022-08-17T15:15:22.840Z,17.24
2022-08-17T15:17:51.394Z,17.69
2022-08-17T15:20:21.620Z,17.37
2022-08-17T15:22:56.307Z,17.75
2022-08-17T15:25:25.244Z,17.88
2022-08-17T15:27:52.779Z,17.71
2022-08-17T15:30:20.232Z,17.59
2022-08-17T15:32:54.422Z,17.86
2022-08-17T15:35:29.596Z,17.88
2022-08-17T15:37:58.641Z,17.62
2022-08-17T15:40:25.654Z,17.67
2022-08-17T15:42:53.240Z,17.07
2022-08-17T15:45:23.091Z,17.87
2022-08-17T15:47:50.216Z,17.57
2022-08-17T15:50:17.529Z,17.85
2022-08-17T15:52:45.300Z,17.75
2022-08-17T15:55:15.304Z,18.16
2022-08-17T15:57:42.420Z,18.47
2022-08-17T16:00:10.388Z,18.36
2022-08-17T16:03:44.451Z,18.62
2022-08-17T16:05:31.070Z,18.84
2022-08-17T16:07:58.823Z,18.80
2022-08-17T16:10:35.386Z,18.49
2022-08-17T16:13:04.264Z,18.63
2022-08-17T16:15:32.047Z,19.06
2022-08-17T16:17:59.517Z,18.89
2022-08-17T16:20:26.968Z,19.58
2022-08-17T16:22:55.248Z,19.22
2022-08-17T16:25:38.343Z,20.01
2022-08-17T16:28:18.145Z,20.55
2022-08-17T16:30:45.697Z,20.44
2022-08-17T16:33:12.650Z,20.68
2022-08-17T16:35:39.768Z,21.24
2022-08-17T16:38:07.287Z,21.27
2022-08-17T16:40:35.744Z,21.38
2022-08-17T16:43:12.240Z,21.69
2022-08-17T16:45:40.975Z,21.96
2022-08-17T16:48:09.819Z,21.95
2022-08-17T16:50:37.043Z,22.21
2022-08-17T16:53:10.952Z,21.95
2022-08-17T16:55:38.879Z,22.88
2022-08-17T16:58:07.061Z,22.52
2022-08-17T17:00:34.252Z,22.98
2022-08-17T17:03:19.146Z,23.35
2022-08-17T17:06:18.676Z,23.89
2022-08-17T17:08:57.730Z,24.79
2022-08-17T17:11:35.687Z,25.29
2022-08-17T17:14:06.449Z,25.93
2022-08-17T17:16:45.300Z,26.78
2022-08-17T17:19:34.513Z,26.14
2022-08-17T17:22:15.960Z,27.02
2022-08-17T17:25:07.543Z,27.13
2022-08-17T17:28:00.051Z,27.58
2022-08-17T17:30:39.518Z,27.88
2022-08-17T17:33:15.050Z,28.21
2022-08-17T17:35:56.855Z,29.30
2022-08-17T17:38:40.640Z,29.85
2022-08-17T17:41:15.586Z,29.56
2022-08-17T17:43:43.287Z,29.61
2022-08-17T17:46:29.267Z,29.38
2022-08-17T17:48:57.952Z,29.05
2022-08-17T17:52:09.453Z,29.42
2022-08-17T17:54:25.729Z,29.75
2022-08-17T17:57:11.221Z,29.39
2022-08-17T17:59:59.282Z,29.44
2022-08-17T18:02:51.534Z,29.59
2022-08-17T18:05:28.460Z,29.39
2022-08-17T18:08:34.992Z,30.14
2022-08-17T18:11:13.450Z,30.59
2022-08-17T18:13:44.150Z,29.95
2022-08-17T18:16:15.161Z,30.47
2022-08-17T18:18:48.079Z,30.25
2022-08-17T18:21:21.040Z,30.34
2022-08-17T18:24:00.265Z,31.03
2022-08-17T18:26:33.433Z,31.28
2022-08-17T18:29:01.082Z,31.08
2022-08-17T18:31:28.496Z,31.12
2022-08-17T18:34:45.529Z,31.25
2022-08-17T18:37:10.117Z,31.22
2022-08-17T18:39:38.760Z,30.89
2022-08-17T18:42:25.851Z,31.47
2022-08-17T18:44:55.423Z,31.26
2022-08-17T18:47:29.624Z,31.90
2022-08-17T18:50:18.330Z,32.84
2022-08-17T18:52:47.562Z,33.09
2022-08-17T18:55:25.577Z,33.25
2022-08-17T18:57:56.997Z,32.54
2022-08-17T19:00:30.137Z,32.45
2022-08-17T19:03:01.253Z,33.15
2022-08-17T19:05:35.790Z,33.24
2022-08-17T19:08:20.680Z,33.61
2022-08-17T19:10:51.640Z,33.50
2022-08-17T19:13:25.141Z,33.93
2022-08-17T19:16:15.981Z,33.30
2022-08-17T19:18:56.917Z,33.29
2022-08-17T19:21:31.192Z,32.79
2022-08-17T19:24:14.380Z,33.09
2022-08-17T19:26:54.826Z,33.21
2022-08-17T19:29:26.032Z,33.11
2022-08-17T19:31:56.429Z,33.34
2022-08-17T19:34:34.024Z,32.87
2022-08-17T19:37:21.846Z,33.41
2022-08-17T19:40:50.595Z,33.83
2022-08-17T19:43:33.199Z,34.26
2022-08-17T19:46:15.035Z,34.95
2022-08-17T19:49:04.161Z,34.65
2022-08-17T19:51:41.281Z,34.59
2022-08-17T19:54:40.700Z,35.04
2022-08-17T19:57:18.119Z,34.53
2022-08-17T19:59:54.833Z,34.98
2022-08-17T20:02:37.866Z,34.43
2022-08-17T20:05:26.040Z,34.53
2022-08-17T20:07:55.359Z,34.97
2022-08-17T20:10:54.607Z,35.55
2022-08-17T20:13:34.247Z,35.81
2022-08-17T20:16:03.329Z,35.98
2022-08-17T20:18:38.440Z,36.36
2022-08-17T20:21:20.498Z,36.94
2022-08-17T20:23:56.839Z,37.40
2022-08-17T20:26:28.829Z,37.30
2022-08-17T20:29:16.810Z,37.39
2022-08-17T20:31:49.723Z,37.04
2022-08-17T20:34:38.187Z,36.71
2022-08-17T20:37:14.711Z,36.46
2022-08-17T20:39:52.790Z,36.67
2022-08-17T20:42:22.543Z,37.58
2022-08-17T20:45:05.929Z,37.23
2022-08-17T20:47:55.335Z,36.64
2022-08-17T20:50:36.779Z,36.38
2022-08-17T20:53:07.239Z,36.57
2022-08-17T20:55:34.160Z,36.89
2022-08-17T20:58:30.861Z,38.07
2022-08-17T21:00:59.163Z,37.95
2022-08-17T21:03:49.935Z,38.39
2022-08-17T21:06:18.741Z,38.94
2022-08-17T21:08:57.822Z,38.93
2022-08-17T21:11:57.134Z,38.71
2022-08-17T21:14:56.640Z,38.83
2022-08-17T21:17:29.813Z,38.80
2022-08-17T21:20:15.780Z,38.28
2022-08-17T21:23:07.411Z,38.79
2022-08-17T21:25:43.237Z,38.94
2022-08-17T21:28:34.157Z,39.00
2022-08-17T21:31:09.125Z,39.22
2022-08-17T21:33:39.783Z,39.84
2022-08-17T21:36:12.635Z,39.19
2022-08-17T21:38:48.842Z,39.43
2022-08-17T21:41:31.345Z,40.32
2022-08-17T21:44:07.281Z,40.48
2022-08-17T21:46:40.300Z,40.65
2022-08-17T21:49:13.619Z,40.70
2022-08-17T21:51:51.191Z,41.46
2022-08-17T21:54:35.880Z,41.26
2022-08-17T21:57:07.302Z,41.54
2022-08-17T21:59:38.881Z,41.73
2022-08-17T22:02:22.562Z,41.64
2022-08-17T22:04:59.381Z,41.27
2022-08-17T22:07:48.221Z,41.28
2022-08-17T22:10:38.342Z,41.30
2022-08-17T22:13:16.831Z,42.00
2022-08-17T22:16:28.143Z,42.23
2022-08-17T22:18:53.579Z,42.11
2022-08-17T22:21:22.643Z,41.40
2022-08-17T22:24:16.541Z,42.08
2022-08-17T22:27:13.189Z,41.48
2022-08-17T22:29:56.844Z,41.65
2022-08-17T22:32:35.254Z,41.72
2022-08-17T22:35:17.350Z,41.75
2022-08-17T22:37:44.516Z,41.81
2022-08-17T22:40:34.682Z,42.25
2022-08-17T22:43:03.812Z,43.30
2022-08-17T22:45:31.373Z,43.21
2022-08-17T22:48:00.912Z,43.26
2022-08-17T22:50:31.201Z,43.75
2022-08-17T22:53:22.841Z,43.71
2022-08-17T22:56:14.511Z,44.08
2022-08-17T22:59:14.017Z,44.07
2022-08-17T23:01:43.571Z,44.51
2022-08-17T23:04:35.967Z,44.75
2022-08-17T23:07:03.021Z,44.37
2022-08-17T23:09:30.181Z,45.12
2022-08-17T23:11:59.103Z,44.76
2022-08-17T23:14:31.810Z,44.12
2022-08-17T23:17:02.503Z,44.04
2022-08-17T23:19:31.859Z,44.04
2022-08-17T23:21:59.993Z,43.51
2022-08-17T23:24:30.151Z,44.18
2022-08-17T23:26:58.375Z,44.73
2022-08-17T23:29:26.119Z,44.22
2022-08-17T23:31:53.452Z,44.38
2022-08-17T23:34:20.671Z,44.57
2022-08-17T23:36:52.604Z,44.09
2022-08-17T23:39:24.518Z,44.66
2022-08-17T23:42:00.611Z,44.19
2022-08-17T23:44:29.141Z,43.94
2022-08-17T23:46:56.323Z,43.78
2022-08-17T23:49:25.391Z,43.90
2022-08-17T23:51:54.931Z,44.20
2022-08-17T23:54:28.614Z,44.31
2022-08-17T23:56:55.831Z,45.09
2022-08-17T23:59:23.862Z,45.53
